Cameron Village, North Carolina
Current Conditions -  °F | °C
As of 10:51 AM on Sunday 21 Dec 2014 (Local Time) from KRDU Reporting Station
Overcast Overcast  
Wind Chill: 38°   Ceiling: 2900
Heat Index: 42°   Visibility: 10mi
Dew Point: 34°   Wind: 6mph
Humidity: 73%   Direction: 90°E
Pressure: 30.33"   Gusts: NA
Location:  35.7907°N, 78.6542°W
Report Text: KRDU 211551Z 09005KT 10SM OVC029 06/01 A3033 RMK AO2 SLP272 T00560011
Loading
Personal Weather Stations






























Interactive Weather Map New forecast layout! Learn more

10-Day Weather Forecast

Advertisements
Track Severe Weather on mobile